Time;durP1;ratioP1;P1;durP2;ratioP2;P2;SDS_P1;SDS_P2;PMS_P1;PMS_P2;Temp;Humidity;BMP_temperature;BMP_pressure;BME280_temperature;BME280_humidity;BME280_pressure;Samples;Min_cycle;Max_cycle;Signal;HPM_P1;HPM_P2
2021/08/24 00:01:55;;;;;;;18.43;5.40;;;;;;;;;;754565;184;919585;-66
2021/08/24 00:04:20;;;;;;;7.97;4.80;;;;;;;;;;760413;184;918342;-66
2021/08/24 00:06:46;;;;;;;6.47;3.77;;;;;;;;;;753436;183;941885;-66
2021/08/24 00:09:12;;;;;;;10.27;5.70;;;;;;;;;;755637;183;919307;-66
2021/08/24 00:11:38;;;;;;;8.50;4.10;;;;;;;;;;755021;184;920681;-65
2021/08/24 00:14:04;;;;;;;12.60;3.90;;;;;;;;;;760774;183;919561;-66
2021/08/24 00:16:30;;;;;;;7.40;3.80;;;;;;;;;;755651;183;1059658;-66
2021/08/24 00:18:55;;;;;;;9.63;4.47;;;;;;;;;;755501;183;918696;-65
2021/08/24 00:21:21;;;;;;;23.40;4.87;;;;;;;;;;759598;183;919393;-66
2021/08/24 00:23:47;;;;;;;8.47;4.53;;;;;;;;;;755924;181;917732;-66
2021/08/24 00:26:13;;;;;;;18.73;4.85;;;;;;;;;;753656;183;1021494;-66
2021/08/24 00:28:39;;;;;;;8.53;4.70;;;;;;;;;;759509;183;919690;-66
2021/08/24 00:31:05;;;;;;;10.40;5.20;;;;;;;;;;753696;183;921896;-66
2021/08/24 00:33:30;;;;;;;6.43;4.60;;;;;;;;;;753620;182;920000;-66
2021/08/24 00:35:56;;;;;;;10.37;4.60;;;;;;;;;;754240;182;921091;-66
2021/08/24 00:38:22;;;;;;;9.43;5.00;;;;;;;;;;762759;183;918102;-66
2021/08/24 00:40:50;;;;;;;8.10;4.43;;;;;;;;;;755218;183;920821;-65
2021/08/24 00:43:16;;;;;;;7.00;5.10;;;;;;;;;;753397;181;922109;-67
2021/08/24 00:45:41;;;;;;;13.13;5.70;;;;;;;;;;758273;184;918807;-68
2021/08/24 00:48:07;;;;;;;11.73;4.77;;;;;;;;;;754726;184;918588;-66
2021/08/24 00:50:33;;;;;;;8.73;5.60;;;;;;;;;;754343;181;936036;-66
2021/08/24 00:53:00;;;;;;;12.53;5.00;;;;;;;;;;758984;185;918355;-69
2021/08/24 00:55:26;;;;;;;11.40;5.80;;;;;;;;;;748702;184;918618;-66
2021/08/24 00:57:52;;;;;;;17.53;6.40;;;;;;;;;;753555;184;947528;-66
2021/08/24 01:00:18;;;;;;;9.27;5.43;;;;;;;;;;754453;184;919712;-65
2021/08/24 01:02:44;;;;;;;9.40;6.30;;;;;;;;;;763029;184;611453;-66
2021/08/24 01:05:10;;;;;;;13.57;5.80;;;;;;;;;;759326;184;627180;-66
2021/08/24 01:07:36;;;;;;;8.85;6.12;;;;;;;;;;754870;182;918755;-67
2021/08/24 01:10:02;;;;;;;9.73;5.70;;;;;;;;;;759806;181;914769;-65
2021/08/24 01:12:30;;;;;;;11.17;6.13;;;;;;;;;;757180;184;914649;-67
2021/08/24 01:15:11;;;;;;;11.63;5.50;;;;;;;;;;754868;183;1018001;-66
2021/08/24 01:17:37;;;;;;;13.00;6.13;;;;;;;;;;753791;184;915587;-66
2021/08/24 01:20:06;;;;;;;7.37;6.07;;;;;;;;;;760336;183;915065;-67
2021/08/24 01:22:38;;;;;;;11.00;5.50;;;;;;;;;;761922;184;619021;-66
2021/08/24 01:25:04;;;;;;;7.70;5.50;;;;;;;;;;759482;183;631216;-66
2021/08/24 01:27:31;;;;;;;13.30;6.60;;;;;;;;;;757695;183;915722;-66
2021/08/24 01:30:02;;;;;;;9.23;6.00;;;;;;;;;;759515;181;916189;-66
2021/08/24 01:32:41;;;;;;;8.13;6.20;;;;;;;;;;757617;183;922974;-66
2021/08/24 01:35:09;;;;;;;16.60;5.87;;;;;;;;;;753073;183;921982;-67
2021/08/24 01:37:35;;;;;;;6.90;6.10;;;;;;;;;;752753;182;915391;-67
2021/08/24 01:40:18;;;;;;;8.37;6.23;;;;;;;;;;753293;183;920829;-67
2021/08/24 01:42:43;;;;;;;12.97;5.77;;;;;;;;;;752817;183;919518;-64
2021/08/24 01:45:10;;;;;;;8.13;5.17;;;;;;;;;;760103;184;913881;-65
2021/08/24 01:47:42;;;;;;;10.67;6.20;;;;;;;;;;754032;183;919081;-65
2021/08/24 01:50:09;;;;;;;10.23;5.17;;;;;;;;;;756446;183;918577;-65
2021/08/24 01:52:35;;;;;;;22.23;6.33;;;;;;;;;;753206;183;921130;-64
2021/08/24 01:55:01;;;;;;;12.67;5.60;;;;;;;;;;759830;184;919177;-65
2021/08/24 01:57:27;;;;;;;10.30;5.70;;;;;;;;;;754126;184;910897;-66
2021/08/24 01:59:53;;;;;;;11.50;4.90;;;;;;;;;;753822;184;919460;-65
2021/08/24 02:02:19;;;;;;;6.97;5.07;;;;;;;;;;758347;184;918050;-65
2021/08/24 02:04:46;;;;;;;11.20;4.97;;;;;;;;;;752940;183;918785;-65
2021/08/24 02:07:12;;;;;;;5.93;5.33;;;;;;;;;;753496;184;919606;-65
2021/08/24 02:09:38;;;;;;;10.03;5.07;;;;;;;;;;762415;184;618577;-65
2021/08/24 02:12:04;;;;;;;12.33;6.13;;;;;;;;;;755767;184;626180;-65
2021/08/24 02:14:29;;;;;;;13.73;5.70;;;;;;;;;;757283;184;917064;-65
2021/08/24 02:16:58;;;;;;;6.87;4.60;;;;;;;;;;753333;184;914442;-65
2021/08/24 02:19:22;;;;;;;10.13;5.30;;;;;;;;;;760944;184;918777;-64
2021/08/24 02:21:48;;;;;;;17.10;5.90;;;;;;;;;;752992;184;958887;-66
2021/08/24 02:24:14;;;;;;;14.03;5.50;;;;;;;;;;753785;184;918816;-65
2021/08/24 02:26:40;;;;;;;7.80;5.30;;;;;;;;;;759566;184;918334;-65
2021/08/24 02:29:05;;;;;;;20.90;5.97;;;;;;;;;;756102;184;920101;-64
2021/08/24 02:31:33;;;;;;;7.83;4.90;;;;;;;;;;756588;183;920903;-65
2021/08/24 02:34:00;;;;;;;10.13;5.70;;;;;;;;;;762270;183;918177;-64
2021/08/24 02:36:25;;;;;;;8.70;4.90;;;;;;;;;;760695;183;918507;-64
2021/08/24 02:38:52;;;;;;;13.33;5.00;;;;;;;;;;754568;183;919996;-64
2021/08/24 02:41:18;;;;;;;13.67;5.13;;;;;;;;;;753390;184;921998;-64
2021/08/24 02:43:45;;;;;;;10.30;4.70;;;;;;;;;;761442;183;913714;-64
2021/08/24 02:46:12;;;;;;;8.13;4.77;;;;;;;;;;757435;184;909450;-64
2021/08/24 02:48:38;;;;;;;11.33;5.07;;;;;;;;;;755125;183;915415;-64
2021/08/24 02:51:04;;;;;;;13.00;5.10;;;;;;;;;;759043;183;917565;-64
2021/08/24 02:53:30;;;;;;;8.40;4.87;;;;;;;;;;755086;183;919238;-64
2021/08/24 02:55:56;;;;;;;11.85;5.70;;;;;;;;;;754753;181;925850;-64
2021/08/24 02:58:22;;;;;;;14.03;5.27;;;;;;;;;;754127;184;914455;-64
2021/08/24 03:00:47;;;;;;;9.03;6.00;;;;;;;;;;760360;181;916709;-65
2021/08/24 03:03:13;;;;;;;10.70;6.63;;;;;;;;;;752937;183;920606;-64
2021/08/24 03:05:39;;;;;;;10.20;5.70;;;;;;;;;;753834;182;914746;-64
2021/08/24 03:08:05;;;;;;;8.07;5.30;;;;;;;;;;764319;184;633771;-64
2021/08/24 03:10:31;;;;;;;6.10;5.27;;;;;;;;;;759060;184;635947;-63
2021/08/24 03:12:57;;;;;;;15.97;5.50;;;;;;;;;;752597;181;1008913;-64
2021/08/24 03:15:22;;;;;;;15.48;5.82;;;;;;;;;;757842;185;919354;-63
2021/08/24 03:17:49;;;;;;;6.60;5.43;;;;;;;;;;759981;184;919955;-64
2021/08/24 03:20:14;;;;;;;9.30;6.60;;;;;;;;;;758307;182;911052;-64
2021/08/24 03:22:40;;;;;;;7.97;5.30;;;;;;;;;;754421;184;919221;-63
2021/08/24 03:25:06;;;;;;;8.83;5.97;;;;;;;;;;757785;184;919571;-64
2021/08/24 03:27:32;;;;;;;8.53;5.00;;;;;;;;;;752845;184;919415;-63
2021/08/24 03:29:58;;;;;;;10.43;5.90;;;;;;;;;;753642;184;919475;-64
2021/08/24 03:32:24;;;;;;;11.27;6.80;;;;;;;;;;760693;184;918804;-63
2021/08/24 03:34:50;;;;;;;8.63;5.80;;;;;;;;;;753592;184;919239;-65
2021/08/24 03:37:16;;;;;;;10.67;6.20;;;;;;;;;;753371;184;1019372;-63
2021/08/24 03:39:41;;;;;;;15.53;5.83;;;;;;;;;;760046;184;919099;-63
2021/08/24 03:42:07;;;;;;;14.60;5.80;;;;;;;;;;756371;182;919130;-64
2021/08/24 03:44:33;;;;;;;11.80;5.60;;;;;;;;;;756497;183;919953;-64
2021/08/24 03:46:59;;;;;;;9.57;5.57;;;;;;;;;;760510;184;896202;-64
2021/08/24 03:49:25;;;;;;;6.67;4.63;;;;;;;;;;755321;183;919273;-63
2021/08/24 03:51:51;;;;;;;8.00;5.33;;;;;;;;;;753444;182;918714;-63
2021/08/24 03:54:17;;;;;;;11.47;5.90;;;;;;;;;;753658;183;919846;-64
2021/08/24 03:56:42;;;;;;;12.53;5.00;;;;;;;;;;761117;184;918504;-62
2021/08/24 03:59:08;;;;;;;10.00;6.27;;;;;;;;;;755115;183;946248;-62
2021/08/24 04:01:34;;;;;;;8.60;6.43;;;;;;;;;;754686;182;918658;-63
2021/08/24 04:04:00;;;;;;;9.05;6.03;;;;;;;;;;762024;183;919667;-63
2021/08/24 04:06:26;;;;;;;18.70;6.63;;;;;;;;;;754789;183;919502;-63
2021/08/24 04:08:52;;;;;;;10.93;5.83;;;;;;;;;;754735;184;919325;-62
2021/08/24 04:11:17;;;;;;;9.20;7.27;;;;;;;;;;759981;184;919525;-63
2021/08/24 04:13:43;;;;;;;12.10;6.43;;;;;;;;;;752917;181;921307;-61
2021/08/24 04:16:09;;;;;;;23.63;8.77;;;;;;;;;;753743;184;919611;-63
2021/08/24 04:18:35;;;;;;;10.70;6.70;;;;;;;;;;755514;183;919437;-62
2021/08/24 04:21:01;;;;;;;13.45;7.57;;;;;;;;;;762045;181;919097;-63
2021/08/24 04:23:27;;;;;;;14.33;7.33;;;;;;;;;;752978;184;926761;-62
2021/08/24 04:25:52;;;;;;;19.95;9.85;;;;;;;;;;754706;184;919940;-62
2021/08/24 04:28:18;;;;;;;10.50;7.40;;;;;;;;;;760734;184;1124122;-62
2021/08/24 04:30:44;;;;;;;10.80;9.13;;;;;;;;;;755955;184;920133;-62
2021/08/24 04:33:10;;;;;;;14.63;8.45;;;;;;;;;;755890;184;918693;-62
2021/08/24 04:35:36;;;;;;;13.53;9.60;;;;;;;;;;756726;184;919246;-63
2021/08/24 04:38:02;;;;;;;12.70;9.10;;;;;;;;;;755397;184;918821;-63
2021/08/24 04:40:30;;;;;;;14.47;9.93;;;;;;;;;;753815;184;919113;-65
2021/08/24 04:42:54;;;;;;;16.80;10.20;;;;;;;;;;757897;184;918374;-63
2021/08/24 04:45:20;;;;;;;17.10;10.50;;;;;;;;;;763288;181;1019970;-63
2021/08/24 04:47:46;;;;;;;19.80;11.97;;;;;;;;;;755251;183;919108;-63
2021/08/24 04:50:11;;;;;;;17.60;13.33;;;;;;;;;;753759;184;917705;-63
2021/08/24 04:52:37;;;;;;;19.63;13.33;;;;;;;;;;760480;184;920328;-63
2021/08/24 04:55:03;;;;;;;18.50;12.45;;;;;;;;;;756969;183;919560;-64
2021/08/24 04:57:29;;;;;;;23.27;15.60;;;;;;;;;;756330;183;930671;-63
2021/08/24 04:59:55;;;;;;;24.10;14.23;;;;;;;;;;762096;183;917851;-63
2021/08/24 05:02:21;;;;;;;30.37;16.00;;;;;;;;;;756305;182;918283;-64
2021/08/24 05:04:47;;;;;;;28.97;18.57;;;;;;;;;;756053;183;919044;-64
2021/08/24 05:07:12;;;;;;;29.00;18.63;;;;;;;;;;759595;182;918990;-64
2021/08/24 05:09:38;;;;;;;31.23;17.70;;;;;;;;;;753925;183;920437;-64
2021/08/24 05:12:05;;;;;;;30.50;19.17;;;;;;;;;;754805;183;922222;-64
2021/08/24 05:14:30;;;;;;;30.50;19.43;;;;;;;;;;753615;183;919626;-63
2021/08/24 05:16:56;;;;;;;28.17;17.20;;;;;;;;;;760778;183;918528;-63
2021/08/24 05:19:22;;;;;;;29.33;17.70;;;;;;;;;;755393;184;920549;-64
2021/08/24 05:21:48;;;;;;;43.17;19.23;;;;;;;;;;754322;181;918968;-63
2021/08/24 05:24:14;;;;;;;30.80;18.47;;;;;;;;;;759346;183;919063;-63
2021/08/24 05:26:40;;;;;;;27.80;17.67;;;;;;;;;;755227;183;926007;-65
2021/08/24 05:29:07;;;;;;;25.97;17.23;;;;;;;;;;754850;183;919064;-63
2021/08/24 05:31:32;;;;;;;32.27;18.93;;;;;;;;;;758946;184;917871;-65
2021/08/24 05:33:57;;;;;;;29.33;19.13;;;;;;;;;;752705;184;921589;-64
2021/08/24 05:36:23;;;;;;;32.63;18.80;;;;;;;;;;753786;184;918507;-63
2021/08/24 05:38:49;;;;;;;25.93;17.30;;;;;;;;;;753732;184;918377;-63
2021/08/24 05:41:15;;;;;;;26.23;17.23;;;;;;;;;;759705;183;917040;-64
2021/08/24 05:43:41;;;;;;;27.60;16.83;;;;;;;;;;753740;184;918895;-64
2021/08/24 05:46:07;;;;;;;27.13;16.37;;;;;;;;;;753125;184;920639;-65
2021/08/24 05:48:32;;;;;;;26.93;16.40;;;;;;;;;;761411;183;894100;-64
2021/08/24 05:50:58;;;;;;;28.37;16.20;;;;;;;;;;754539;184;918942;-64
2021/08/24 05:53:24;;;;;;;22.77;16.37;;;;;;;;;;753501;184;920762;-64
2021/08/24 05:55:50;;;;;;;18.20;13.80;;;;;;;;;;757954;182;920552;-66
2021/08/24 05:58:16;;;;;;;18.40;13.40;;;;;;;;;;754196;184;920918;-64
2021/08/24 06:00:42;;;;;;;14.50;12.90;;;;;;;;;;755510;184;918698;-65
2021/08/24 06:03:08;;;;;;;15.07;12.77;;;;;;;;;;755814;184;920013;-64
2021/08/24 06:05:39;;;;;;;15.93;14.10;;;;;;;;;;762035;181;918245;-64
2021/08/24 06:08:05;;;;;;;17.67;13.93;;;;;;;;;;755259;183;918037;-65
2021/08/24 06:10:31;;;;;;;18.37;13.90;;;;;;;;;;754616;183;920001;-65
2021/08/24 06:12:56;;;;;;;18.70;14.23;;;;;;;;;;761272;182;914793;-65
2021/08/24 06:15:23;;;;;;;16.90;12.53;;;;;;;;;;754781;183;916315;-65
2021/08/24 06:17:48;;;;;;;14.00;12.40;;;;;;;;;;755139;183;915793;-65
2021/08/24 06:20:15;;;;;;;16.87;13.70;;;;;;;;;;760478;183;916082;-66
2021/08/24 06:22:40;;;;;;;14.73;12.10;;;;;;;;;;758323;183;914908;-65
2021/08/24 06:25:06;;;;;;;18.50;12.70;;;;;;;;;;756099;183;917503;-65
2021/08/24 06:27:32;;;;;;;18.00;13.00;;;;;;;;;;754025;183;915526;-65
2021/08/24 06:29:58;;;;;;;16.47;12.23;;;;;;;;;;759548;184;919595;-65
2021/08/24 06:32:28;;;;;;;15.70;12.07;;;;;;;;;;753232;183;919871;-65
2021/08/24 06:34:53;;;;;;;14.98;11.90;;;;;;;;;;754517;183;918829;-65
2021/08/24 06:37:19;;;;;;;16.40;12.93;;;;;;;;;;760348;182;918158;-65
2021/08/24 06:39:45;;;;;;;22.20;12.57;;;;;;;;;;755415;183;919175;-65
2021/08/24 06:42:11;;;;;;;16.63;13.30;;;;;;;;;;754562;183;1021427;-65
2021/08/24 06:44:37;;;;;;;18.90;13.60;;;;;;;;;;754092;184;918479;-64
2021/08/24 06:47:03;;;;;;;16.33;14.00;;;;;;;;;;748533;184;907011;-65
2021/08/24 06:49:29;;;;;;;19.03;13.60;;;;;;;;;;751982;182;1126223;-66
2021/08/24 06:51:57;;;;;;;14.73;12.10;;;;;;;;;;753765;184;930065;-65
2021/08/24 06:54:21;;;;;;;15.93;12.20;;;;;;;;;;759635;183;919751;-65
2021/08/24 06:56:46;;;;;;;17.93;13.27;;;;;;;;;;754119;181;917127;-65
2021/08/24 06:59:13;;;;;;;14.67;11.60;;;;;;;;;;753819;184;925658;-65
2021/08/24 07:01:38;;;;;;;16.20;11.20;;;;;;;;;;759911;184;919158;-67
2021/08/24 07:04:04;;;;;;;17.07;11.17;;;;;;;;;;754501;184;919636;-64
2021/08/24 07:06:30;;;;;;;14.07;10.27;;;;;;;;;;756432;181;918764;-65
2021/08/24 07:08:56;;;;;;;12.83;10.83;;;;;;;;;;758580;183;918458;-65
2021/08/24 07:11:22;;;;;;;14.10;11.30;;;;;;;;;;753034;184;920189;-65
2021/08/24 07:13:50;;;;;;;21.07;10.77;;;;;;;;;;752624;184;920190;-65
2021/08/24 07:16:14;;;;;;;13.90;11.20;;;;;;;;;;752922;183;919235;-65
2021/08/24 07:18:39;;;;;;;13.50;11.10;;;;;;;;;;762269;181;917621;-65
2021/08/24 07:21:05;;;;;;;13.17;10.17;;;;;;;;;;756192;183;1022011;-66
2021/08/24 07:23:31;;;;;;;15.33;10.73;;;;;;;;;;756045;183;919081;-64
2021/08/24 07:25:56;;;;;;;16.10;10.80;;;;;;;;;;760775;183;918302;-65
2021/08/24 07:28:22;;;;;;;20.50;13.27;;;;;;;;;;755385;183;919241;-64
2021/08/24 07:30:49;;;;;;;17.30;11.60;;;;;;;;;;757700;183;917960;-64
2021/08/24 07:33:16;;;;;;;13.63;10.80;;;;;;;;;;760137;183;924730;-65
2021/08/24 07:35:43;;;;;;;13.73;10.80;;;;;;;;;;755225;184;931952;-65
2021/08/24 07:38:09;;;;;;;19.33;13.37;;;;;;;;;;754421;184;919169;-65
2021/08/24 07:40:34;;;;;;;13.23;11.00;;;;;;;;;;754035;183;919924;-65
2021/08/24 07:43:00;;;;;;;21.03;11.73;;;;;;;;;;760072;183;929972;-64
2021/08/24 07:45:26;;;;;;;18.53;11.40;;;;;;;;;;754203;183;923056;-64
2021/08/24 07:47:52;;;;;;;14.97;10.73;;;;;;;;;;755334;183;918691;-64
2021/08/24 07:50:18;;;;;;;15.40;12.90;;;;;;;;;;758610;183;921132;-65
2021/08/24 07:52:44;;;;;;;13.10;10.67;;;;;;;;;;756202;183;919966;-65
2021/08/24 07:55:11;;;;;;;15.77;12.80;;;;;;;;;;753944;181;919566;-65
2021/08/24 07:57:35;;;;;;;16.27;12.30;;;;;;;;;;758004;183;917921;-66
2021/08/24 08:00:01;;;;;;;14.83;11.43;;;;;;;;;;754450;184;920159;-65
2021/08/24 08:02:27;;;;;;;18.20;13.13;;;;;;;;;;753543;184;918487;-66
2021/08/24 08:04:53;;;;;;;14.83;11.70;;;;;;;;;;753512;184;919479;-64
2021/08/24 08:07:19;;;;;;;18.83;11.33;;;;;;;;;;759586;184;920300;-65
2021/08/24 08:09:45;;;;;;;14.80;12.33;;;;;;;;;;753915;184;1123292;-65
2021/08/24 08:12:11;;;;;;;18.50;12.50;;;;;;;;;;756127;184;918934;-65
2021/08/24 08:14:37;;;;;;;17.03;11.37;;;;;;;;;;758956;182;919396;-64
2021/08/24 08:17:03;;;;;;;16.63;10.83;;;;;;;;;;754393;183;920070;-66
2021/08/24 08:19:29;;;;;;;17.43;10.13;;;;;;;;;;753863;181;919431;-66
2021/08/24 08:21:55;;;;;;;22.20;14.15;;;;;;;;;;759398;184;920974;-66
2021/08/24 08:24:22;;;;;;;10.00;8.80;;;;;;;;;;753956;184;922444;-65
2021/08/24 08:26:48;;;;;;;11.87;8.20;;;;;;;;;;753227;184;919360;-65
2021/08/24 08:29:14;;;;;;;10.03;8.77;;;;;;;;;;755544;181;918960;-64
2021/08/24 08:31:40;;;;;;;13.20;11.03;;;;;;;;;;762444;183;918651;-65
2021/08/24 08:34:06;;;;;;;11.57;7.80;;;;;;;;;;756592;183;919119;-66
2021/08/24 08:36:32;;;;;;;12.50;8.10;;;;;;;;;;756296;183;919127;-65
2021/08/24 08:38:58;;;;;;;10.90;7.70;;;;;;;;;;759698;183;918200;-65
2021/08/24 08:41:40;;;;;;;11.07;8.13;;;;;;;;;;757355;183;913208;-66
2021/08/24 08:44:12;;;;;;;8.85;6.28;;;;;;;;;;748255;183;919231;-67
2021/08/24 08:46:49;;;;;;;10.80;8.10;;;;;;;;;;755187;183;919322;-68
2021/08/24 08:49:19;;;;;;;17.63;12.73;;;;;;;;;;753434;183;915057;-67
2021/08/24 08:51:47;;;;;;;8.20;6.00;;;;;;;;;;753318;183;917185;-66
2021/08/24 08:54:17;;;;;;;12.63;8.10;;;;;;;;;;761056;183;920895;-66
2021/08/24 08:56:45;;;;;;;5.63;4.87;;;;;;;;;;754307;183;911968;-67
2021/08/24 08:59:11;;;;;;;9.27;5.80;;;;;;;;;;752009;182;921107;-67
2021/08/24 09:01:37;;;;;;;6.13;4.83;;;;;;;;;;758738;182;915202;-66
2021/08/24 09:04:13;;;;;;;9.17;4.80;;;;;;;;;;753607;184;910101;-66
2021/08/24 09:06:39;;;;;;;5.27;3.83;;;;;;;;;;754257;184;910839;-67
2021/08/24 09:09:08;;;;;;;5.80;2.97;;;;;;;;;;754464;184;916991;-67
2021/08/24 09:11:31;;;;;;;5.83;4.23;;;;;;;;;;757927;184;915889;-66
2021/08/24 09:13:57;;;;;;;3.20;2.37;;;;;;;;;;752089;184;916192;-66
2021/08/24 09:16:26;;;;;;;3.00;2.10;;;;;;;;;;752159;182;918535;-67
2021/08/24 09:18:52;;;;;;;2.90;2.17;;;;;;;;;;753657;184;916204;-66
2021/08/24 09:21:19;;;;;;;4.07;2.60;;;;;;;;;;760832;184;914982;-66
2021/08/24 09:23:45;;;;;;;12.57;9.32;;;;;;;;;;754517;184;920260;-67
2021/08/24 09:26:15;;;;;;;3.43;2.10;;;;;;;;;;754582;184;919519;-67
2021/08/24 09:28:41;;;;;;;3.10;2.30;;;;;;;;;;752157;184;910670;-66
2021/08/24 09:31:06;;;;;;;2.30;1.77;;;;;;;;;;749720;184;918891;-67
2021/08/24 09:33:32;;;;;;;4.90;3.50;;;;;;;;;;752937;184;919943;-67
2021/08/24 09:35:58;;;;;;;10.57;2.20;;;;;;;;;;752555;183;918564;-67
2021/08/24 09:38:25;;;;;;;1.80;1.10;;;;;;;;;;761018;184;918271;-68
2021/08/24 09:40:50;;;;;;;3.33;2.08;;;;;;;;;;757679;183;919470;-67
2021/08/24 09:43:18;;;;;;;3.00;2.12;;;;;;;;;;756890;183;924373;-67
2021/08/24 09:45:45;;;;;;;6.83;3.23;;;;;;;;;;759763;183;1122802;-66
2021/08/24 09:48:11;;;;;;;6.17;2.30;;;;;;;;;;756090;184;1022137;-66
2021/08/24 09:50:38;;;;;;;10.17;5.20;;;;;;;;;;755731;183;921081;-65
2021/08/24 09:53:04;;;;;;;2.50;1.70;;;;;;;;;;754983;183;943145;-67
2021/08/24 09:55:29;;;;;;;2.40;1.50;;;;;;;;;;759934;184;917849;-66
2021/08/24 09:57:56;;;;;;;4.95;1.35;;;;;;;;;;754595;183;920201;-66
2021/08/24 10:00:22;;;;;;;3.17;1.77;;;;;;;;;;752949;183;922723;-66
2021/08/24 10:02:50;;;;;;;3.70;2.40;;;;;;;;;;758711;183;919485;-65
2021/08/24 10:05:15;;;;;;;2.30;1.43;;;;;;;;;;757632;182;919335;-66
2021/08/24 10:07:41;;;;;;;3.60;1.70;;;;;;;;;;752662;183;919192;-67
2021/08/24 10:10:07;;;;;;;2.47;1.20;;;;;;;;;;759053;183;922184;-66
2021/08/24 10:12:33;;;;;;;2.50;1.60;;;;;;;;;;752646;181;625319;-66
2021/08/24 10:14:59;;;;;;;3.60;2.20;;;;;;;;;;753664;184;918583;-67
2021/08/24 10:17:29;;;;;;;3.40;1.92;;;;;;;;;;749882;184;920165;-65
2021/08/24 10:19:56;;;;;;;3.53;1.63;;;;;;;;;;758600;184;920935;-66
2021/08/24 10:22:22;;;;;;;2.03;1.23;;;;;;;;;;756101;182;918243;-67
2021/08/24 10:24:52;;;;;;;2.10;1.10;;;;;;;;;;753782;184;919850;-66
2021/08/24 10:27:22;;;;;;;2.73;1.00;;;;;;;;;;752783;184;920142;-66
2021/08/24 10:29:48;;;;;;;3.20;1.20;;;;;;;;;;761899;182;851078;-67
2021/08/24 10:32:13;;;;;;;2.12;1.30;;;;;;;;;;755018;184;917661;-68
2021/08/24 10:34:43;;;;;;;1.83;1.33;;;;;;;;;;753979;184;919450;-66
2021/08/24 10:37:15;;;;;;;3.10;1.33;;;;;;;;;;758466;184;919323;-66
2021/08/24 10:39:41;;;;;;;2.23;1.30;;;;;;;;;;758763;183;919482;-67
2021/08/24 10:42:07;;;;;;;2.50;1.60;;;;;;;;;;753393;184;919647;-68
2021/08/24 10:44:49;;;;;;;1.97;1.20;;;;;;;;;;753111;184;918703;-68
2021/08/24 10:47:19;;;;;;;2.20;1.20;;;;;;;;;;754029;184;917472;-67
2021/08/24 10:49:45;;;;;;;1.90;1.40;;;;;;;;;;759448;183;919082;-65
2021/08/24 10:52:10;;;;;;;3.30;1.60;;;;;;;;;;755798;182;918499;-67
2021/08/24 10:54:37;;;;;;;2.50;1.50;;;;;;;;;;757587;182;918844;-66
2021/08/24 10:57:18;;;;;;;2.20;1.30;;;;;;;;;;754752;183;928739;-66
2021/08/24 10:59:45;;;;;;;2.20;1.27;;;;;;;;;;742011;184;918958;-65
2021/08/24 11:02:15;;;;;;;4.60;1.70;;;;;;;;;;758365;183;919235;-65
2021/08/24 11:04:56;;;;;;;2.60;1.70;;;;;;;;;;752451;183;922254;-65
2021/08/24 11:07:43;;;;;;;3.00;1.87;;;;;;;;;;756952;182;919415;-67
2021/08/24 11:10:12;;;;;;;2.80;1.70;;;;;;;;;;753327;183;919181;-64
2021/08/24 11:12:53;;;;;;;4.07;2.55;;;;;;;;;;753715;183;919302;-65
2021/08/24 11:15:20;;;;;;;5.17;2.40;;;;;;;;;;750675;184;967389;-64
2021/08/24 11:17:49;;;;;;;3.47;2.50;;;;;;;;;;753217;184;920052;-65
2021/08/24 11:20:16;;;;;;;6.13;3.03;;;;;;;;;;761189;183;919320;-64
2021/08/24 11:22:41;;;;;;;6.37;3.00;;;;;;;;;;752530;183;918406;-65
2021/08/24 11:25:08;;;;;;;3.80;2.83;;;;;;;;;;754789;181;917039;-66
2021/08/24 11:27:36;;;;;;;3.60;2.50;;;;;;;;;;758465;183;921736;-65
2021/08/24 11:30:08;;;;;;;5.03;3.53;;;;;;;;;;751863;184;918359;-64
2021/08/24 11:32:30;;;;;;;7.63;3.67;;;;;;;;;;751346;184;918911;-66
2021/08/24 11:34:58;;;;;;;5.00;4.20;;;;;;;;;;752665;184;918675;-67
2021/08/24 11:37:26;;;;;;;6.20;4.30;;;;;;;;;;759510;184;918790;-65
2021/08/24 11:39:51;;;;;;;7.70;4.20;;;;;;;;;;754363;184;918540;-66
2021/08/24 11:42:18;;;;;;;12.23;4.90;;;;;;;;;;754347;181;917985;-67
2021/08/24 11:44:46;;;;;;;6.33;4.90;;;;;;;;;;757566;184;917964;-67
2021/08/24 11:47:10;;;;;;;5.17;4.17;;;;;;;;;;755968;184;918335;-66
2021/08/24 11:49:39;;;;;;;5.40;4.17;;;;;;;;;;755842;184;927938;-67
2021/08/24 11:52:05;;;;;;;7.80;4.83;;;;;;;;;;753009;184;918436;-68
2021/08/24 11:54:31;;;;;;;4.70;3.30;;;;;;;;;;757826;183;918680;-69
2021/08/24 11:56:57;;;;;;;5.40;4.07;;;;;;;;;;757493;184;630002;-67
2021/08/24 11:59:23;;;;;;;9.23;4.00;;;;;;;;;;755720;184;917475;-66
2021/08/24 12:01:49;;;;;;;4.60;3.70;;;;;;;;;;758416;184;918136;-65
2021/08/24 12:04:15;;;;;;;4.70;3.23;;;;;;;;;;756279;183;921889;-66
2021/08/24 12:06:41;;;;;;;4.13;3.50;;;;;;;;;;755932;183;919170;-66
2021/08/24 12:09:07;;;;;;;5.53;3.67;;;;;;;;;;759496;183;918974;-67
2021/08/24 12:11:38;;;;;;;5.63;4.00;;;;;;;;;;750241;183;920082;-68
2021/08/24 12:14:10;;;;;;;5.53;4.50;;;;;;;;;;756987;182;918436;-67
2021/08/24 12:16:36;;;;;;;4.70;3.30;;;;;;;;;;754412;183;919266;-69
2021/08/24 12:19:12;;;;;;;5.20;3.80;;;;;;;;;;758753;183;917596;-66
2021/08/24 12:21:49;;;;;;;3.57;2.77;;;;;;;;;;766187;182;622138;-65
2021/08/24 12:24:36;;;;;;;6.67;4.07;;;;;;;;;;759592;183;929491;-66
2021/08/24 12:27:18;;;;;;;4.83;3.93;;;;;;;;;;760057;183;919225;-66
2021/08/24 12:29:51;;;;;;;7.33;3.70;;;;;;;;;;760246;181;894243;-65
2021/08/24 12:32:31;;;;;;;6.43;4.00;;;;;;;;;;752783;184;919790;-69
2021/08/24 12:35:03;;;;;;;4.63;3.87;;;;;;;;;;755022;182;919412;-67
2021/08/24 12:37:44;;;;;;;5.93;4.57;;;;;;;;;;753354;183;918981;-66
2021/08/24 12:40:25;;;;;;;8.70;4.37;;;;;;;;;;753234;183;917584;-66
2021/08/24 12:42:56;;;;;;;5.27;4.27;;;;;;;;;;750431;184;918689;-68
2021/08/24 12:45:22;;;;;;;8.17;3.50;;;;;;;;;;752386;184;971644;-68
2021/08/24 12:48:04;;;;;;;4.67;3.73;;;;;;;;;;759211;184;920164;-66
2021/08/24 12:50:47;;;;;;;5.00;3.57;;;;;;;;;;756481;184;919549;-67
2021/08/24 12:53:19;;;;;;;5.73;3.53;;;;;;;;;;759014;184;918380;-68
2021/08/24 12:55:45;;;;;;;5.00;3.23;;;;;;;;;;757721;184;918429;-69
2021/08/24 12:58:14;;;;;;;4.73;3.40;;;;;;;;;;753347;184;921242;-68
2021/08/24 13:00:40;;;;;;;4.93;3.08;;;;;;;;;;753598;184;920000;-69
2021/08/24 13:03:11;;;;;;;3.70;2.50;;;;;;;;;;758709;184;919123;-69
2021/08/24 13:05:37;;;;;;;6.20;3.13;;;;;;;;;;754984;184;919267;-68
2021/08/24 13:08:06;;;;;;;4.30;2.93;;;;;;;;;;755255;184;919437;-70
2021/08/24 13:10:31;;;;;;;5.07;3.03;;;;;;;;;;755023;184;919462;-66
2021/08/24 13:12:55;;;;;;;5.13;2.60;;;;;;;;;;759007;183;919247;-68
2021/08/24 13:15:42;;;;;;;3.70;2.40;;;;;;;;;;756403;183;918879;-69
2021/08/24 13:18:07;;;;;;;3.60;2.50;;;;;;;;;;748654;183;919583;-70
2021/08/24 13:20:34;;;;;;;3.00;2.30;;;;;;;;;;754496;183;1038459;-67
2021/08/24 13:23:03;;;;;;;4.97;3.27;;;;;;;;;;761445;183;918461;-67
2021/08/24 13:25:26;;;;;;;3.50;2.90;;;;;;;;;;752822;183;918991;-68
2021/08/24 13:27:52;;;;;;;4.73;3.17;;;;;;;;;;753556;183;919441;-68
2021/08/24 13:30:18;;;;;;;5.57;3.33;;;;;;;;;;754589;182;918669;-68
2021/08/24 13:32:46;;;;;;;5.27;3.53;;;;;;;;;;759372;183;918309;-69
2021/08/24 13:35:20;;;;;;;4.17;3.47;;;;;;;;;;756779;184;917611;-69
2021/08/24 13:37:46;;;;;;;7.37;4.07;;;;;;;;;;755915;182;918164;-71
2021/08/24 13:40:13;;;;;;;5.30;4.30;;;;;;;;;;754925;181;922397;-68
2021/08/24 13:42:37;;;;;;;6.83;5.10;;;;;;;;;;757279;181;920688;-72
2021/08/24 13:45:04;;;;;;;6.17;5.37;;;;;;;;;;754389;183;919913;-69
2021/08/24 13:47:29;;;;;;;8.70;6.20;;;;;;;;;;758473;183;623469;-70
2021/08/24 13:49:55;;;;;;;7.93;5.97;;;;;;;;;;762286;183;641283;-70
2021/08/24 13:52:26;;;;;;;7.07;6.17;;;;;;;;;;759415;181;625103;-71
2021/08/24 13:54:52;;;;;;;7.30;6.27;;;;;;;;;;755582;184;916458;-71
2021/08/24 13:57:18;;;;;;;6.77;5.70;;;;;;;;;;759019;184;913129;-67
2021/08/24 13:59:52;;;;;;;9.10;6.00;;;;;;;;;;760139;184;908359;-71
2021/08/24 14:02:17;;;;;;;7.57;6.80;;;;;;;;;;755481;181;913111;-69
2021/08/24 14:04:44;;;;;;;7.37;5.53;;;;;;;;;;753197;181;918880;-68
2021/08/24 14:07:09;;;;;;;10.80;5.53;;;;;;;;;;758458;183;918659;-68
2021/08/24 14:09:38;;;;;;;6.93;5.80;;;;;;;;;;751449;184;922032;-67
2021/08/24 14:12:04;;;;;;;6.00;5.10;;;;;;;;;;753704;182;918401;-69
2021/08/24 14:14:39;;;;;;;4.80;4.30;;;;;;;;;;753925;181;910189;-68
2021/08/24 14:17:05;;;;;;;4.10;3.60;;;;;;;;;;759751;184;909960;-69
2021/08/24 14:19:31;;;;;;;4.60;3.53;;;;;;;;;;751603;184;909180;-71